Flugplatz Hannover

Bericht für EDDV

vom 25.10. um 17:20 UTC

Wind 4 kt aus 170°

Sichtweite 10 km oder mehr

aufgebrochene Bewölkung in 4500 ft

Temperatur 11.0°C

Taupunkt 7.0°C

Luftfeuchtigkeit 76%

Luftdruck 1017 hPa

keine wesentliche Wetteränderung innerhalb den nächsten 2 Stunden zu erwarten

EDDV 251720Z 17004KT 150V210 9999 BKN045 11/07 Q1017 NOSIG

Prognose für EDDV

vom 25.10. um 17:00 UTC

Zwischen 18:00 UTC und 06:00 UTC

Wind 6 kt aus 190°

Sichtweite 10 km oder mehr

aufgebrochene Bewölkung in 3500 ft


Am 26.10. zwischen 00:00 UTC und 10:00 UTC zeitweise mit einer Wahrscheinlichkeit von 30%

aufgebrochene Bewölkung in 1000 ft


Am 26.10. zwischen 06:00 und 08:00 UTC übergehend zu

Wind 8 kt aus 250°

Sichtweite 10 km oder mehr

aufgebrochene Bewölkung in 3500 ft

TAF EDDV 251700Z 2518/2618 19006KT 9999 BKN035 PROB30 TEMPO 2600/2610 BKN010 BECMG 2606/2608 25008KT
Impressum